createdAt,value
2023-05-05T00:01:02.380Z,2.57
2023-05-05T00:03:29.904Z,2.00
2023-05-05T00:05:57.606Z,2.40
2023-05-05T00:08:24.848Z,2.00
2023-05-05T00:10:52.826Z,2.93
2023-05-05T00:13:21.098Z,2.97
2023-05-05T00:15:49.038Z,2.30
2023-05-05T00:18:17.084Z,2.20
2023-05-05T00:20:44.574Z,2.10
2023-05-05T00:23:11.750Z,2.30
2023-05-05T00:25:38.902Z,2.40
2023-05-05T00:28:05.835Z,2.10
2023-05-05T00:30:34.483Z,2.27
2023-05-05T00:33:01.956Z,2.10
2023-05-05T00:35:29.243Z,2.00
2023-05-05T00:37:56.419Z,2.10
2023-05-05T00:40:23.664Z,2.10
2023-05-05T00:42:51.106Z,2.20
2023-05-05T00:45:19.406Z,2.40
2023-05-05T00:47:51.581Z,2.13
2023-05-05T00:50:30.234Z,2.30
2023-05-05T00:53:01.142Z,2.10
2023-05-05T00:55:29.710Z,2.93
2023-05-05T00:57:58.434Z,2.73
2023-05-05T01:00:25.800Z,2.50
2023-05-05T01:02:53.161Z,2.50
2023-05-05T01:05:22.262Z,2.40
2023-05-05T01:07:58.798Z,2.33
2023-05-05T01:11:21.024Z,2.40
2023-05-05T01:13:56.721Z,3.47
2023-05-05T01:16:29.647Z,2.33
2023-05-05T01:19:34.127Z,2.60
2023-05-05T01:22:03.943Z,2.50
2023-05-05T01:24:45.851Z,2.63
2023-05-05T01:27:46.193Z,2.50
2023-05-05T01:30:31.856Z,2.27
2023-05-05T01:33:08.186Z,2.30
2023-05-05T01:35:50.124Z,2.17
2023-05-05T01:38:32.463Z,2.10
2023-05-05T01:41:14.472Z,2.30
2023-05-05T01:43:45.799Z,2.47
2023-05-05T01:46:13.466Z,2.53
2023-05-05T01:48:42.344Z,2.20
2023-05-05T01:51:10.495Z,2.43
2023-05-05T01:53:38.216Z,2.20
2023-05-05T01:56:06.334Z,2.13
2023-05-05T01:58:34.630Z,2.47
2023-05-05T02:01:01.940Z,2.73
2023-05-05T02:03:30.231Z,2.30
2023-05-05T02:05:58.371Z,2.63
2023-05-05T02:08:26.247Z,2.70
2023-05-05T02:10:54.946Z,2.40
2023-05-05T02:13:24.729Z,2.20
2023-05-05T02:15:53.261Z,2.20
2023-05-05T02:18:20.912Z,2.10
2023-05-05T02:20:48.380Z,2.40
2023-05-05T02:23:15.552Z,2.40
2023-05-05T02:25:45.814Z,2.40
2023-05-05T02:28:54.180Z,2.20
2023-05-05T02:31:24.138Z,7.10
2023-05-05T02:33:51.858Z,2.37
2023-05-05T02:36:21.941Z,2.40
2023-05-05T02:38:54.473Z,2.87
2023-05-05T02:41:22.956Z,2.50
2023-05-05T02:43:51.117Z,2.30
2023-05-05T02:46:18.702Z,2.30
2023-05-05T02:48:46.251Z,2.37
2023-05-05T02:51:13.513Z,3.50
2023-05-05T02:53:41.195Z,2.20
2023-05-05T02:56:08.367Z,2.30
2023-05-05T02:59:00.942Z,2.40
2023-05-05T03:01:47.907Z,2.80
2023-05-05T03:04:31.945Z,2.90
2023-05-05T03:07:02.840Z,2.30
2023-05-05T03:09:40.210Z,2.77
2023-05-05T03:12:10.105Z,2.27
2023-05-05T03:14:43.141Z,2.20
2023-05-05T03:17:12.230Z,2.43
2023-05-05T03:19:43.264Z,2.37
2023-05-05T03:22:10.764Z,2.80
2023-05-05T03:24:37.945Z,2.10
2023-05-05T03:27:05.243Z,2.10
2023-05-05T03:29:32.498Z,2.60
2023-05-05T03:32:01.461Z,2.43
2023-05-05T03:34:28.777Z,2.67
2023-05-05T03:36:56.252Z,2.33
2023-05-05T03:39:23.509Z,2.43
2023-05-05T03:41:50.846Z,2.20
2023-05-05T03:44:18.049Z,2.60
2023-05-05T03:46:45.280Z,2.17
2023-05-05T03:49:12.509Z,2.70
2023-05-05T03:51:39.677Z,2.30
2023-05-05T03:54:06.879Z,2.30
2023-05-05T03:56:34.032Z,2.20
2023-05-05T03:59:01.206Z,2.10
2023-05-05T04:01:30.022Z,2.20
2023-05-05T04:03:57.398Z,2.30
2023-05-05T04:06:25.983Z,2.50
2023-05-05T04:08:53.198Z,2.40
2023-05-05T04:11:21.400Z,2.20
2023-05-05T04:13:49.999Z,2.40
2023-05-05T04:16:17.203Z,2.20
2023-05-05T04:18:44.418Z,2.30
2023-05-05T04:21:11.595Z,2.30
2023-05-05T04:23:38.765Z,2.50
2023-05-05T04:26:06.012Z,2.43
2023-05-05T04:28:33.221Z,2.57
2023-05-05T04:31:02.593Z,2.40
2023-05-05T04:33:29.806Z,2.60
2023-05-05T04:35:57.028Z,2.50
2023-05-05T04:38:24.244Z,2.57
2023-05-05T04:40:51.451Z,2.30
2023-05-05T04:43:18.611Z,2.90
2023-05-05T04:45:55.427Z,2.30
2023-05-05T04:48:22.594Z,2.60
2023-05-05T04:50:49.786Z,2.33
2023-05-05T04:53:17.001Z,2.80
2023-05-05T04:55:44.252Z,2.60
2023-05-05T04:58:11.504Z,2.57
2023-05-05T05:00:38.764Z,2.30
2023-05-05T05:03:06.377Z,2.80
2023-05-05T05:05:33.610Z,2.50
2023-05-05T05:08:00.822Z,2.60
2023-05-05T05:10:28.488Z,3.67
2023-05-05T05:12:55.752Z,2.40
2023-05-05T05:15:23.060Z,2.60
2023-05-05T05:17:50.255Z,2.50
2023-05-05T05:20:17.417Z,2.90
2023-05-05T05:22:44.688Z,2.50
2023-05-05T05:25:11.903Z,2.10
2023-05-05T05:27:39.135Z,2.40
2023-05-05T05:30:06.777Z,2.40
2023-05-05T05:32:34.291Z,2.00
2023-05-05T05:35:01.757Z,2.10
2023-05-05T05:37:31.616Z,2.10
2023-05-05T05:39:58.875Z,2.40
2023-05-05T05:42:26.185Z,2.17
2023-05-05T05:44:53.493Z,2.37
2023-05-05T05:47:20.680Z,2.40
2023-05-05T05:49:47.846Z,2.10
2023-05-05T05:52:15.021Z,2.60
2023-05-05T05:54:42.191Z,2.37
2023-05-05T05:57:09.402Z,2.30
2023-05-05T05:59:36.610Z,2.33
2023-05-05T06:02:04.566Z,2.10
2023-05-05T06:04:31.933Z,2.53
2023-05-05T06:06:59.166Z,1.90
2023-05-05T06:09:26.475Z,1.87
2023-05-05T06:11:53.687Z,2.03
2023-05-05T06:14:20.920Z,2.07
2023-05-05T06:16:48.158Z,2.00
2023-05-05T06:19:15.348Z,1.90
2023-05-05T06:21:42.635Z,2.10
2023-05-05T06:24:09.818Z,2.00
2023-05-05T06:26:37.095Z,2.10
2023-05-05T06:29:04.302Z,1.93
2023-05-05T06:31:31.544Z,2.87
2023-05-05T06:33:58.743Z,1.97
2023-05-05T06:36:26.371Z,2.10
2023-05-05T06:38:53.565Z,2.10
2023-05-05T06:41:21.270Z,2.13
2023-05-05T06:43:48.441Z,2.43
2023-05-05T06:46:15.724Z,1.90
2023-05-05T06:48:42.930Z,1.80
2023-05-05T06:51:10.509Z,1.70
2023-05-05T06:53:37.690Z,1.90
2023-05-05T06:56:05.045Z,1.67
2023-05-05T06:58:32.275Z,1.80
2023-05-05T07:00:59.489Z,2.43
2023-05-05T07:03:28.136Z,2.17
2023-05-05T07:05:55.316Z,1.70
2023-05-05T07:08:22.505Z,1.83
2023-05-05T07:10:49.828Z,2.00
2023-05-05T07:13:17.430Z,1.93
2023-05-05T07:15:46.536Z,1.70
2023-05-05T07:18:14.393Z,1.40
2023-05-05T07:20:41.350Z,1.67
2023-05-05T07:23:08.639Z,1.63
2023-05-05T07:25:35.924Z,2.47
2023-05-05T07:28:03.267Z,1.50
2023-05-05T07:30:30.475Z,1.70
2023-05-05T07:32:57.773Z,1.70
2023-05-05T07:35:25.080Z,1.97
2023-05-05T07:37:52.005Z,1.80
2023-05-05T07:40:19.380Z,1.70
2023-05-05T07:42:47.551Z,2.70
2023-05-05T07:45:14.848Z,1.40
2023-05-05T07:47:42.045Z,1.50
2023-05-05T07:50:09.377Z,2.23
2023-05-05T07:52:46.694Z,1.83
2023-05-05T07:55:17.068Z,1.60
2023-05-05T07:57:44.262Z,1.53
2023-05-05T08:00:13.368Z,1.93
2023-05-05T08:02:41.373Z,1.70
2023-05-05T08:05:09.261Z,2.03
2023-05-05T08:07:41.044Z,1.60
2023-05-05T08:10:12.151Z,2.53
2023-05-05T08:12:39.768Z,1.33
2023-05-05T08:15:07.240Z,1.70
2023-05-05T08:17:48.859Z,1.83
2023-05-05T08:20:20.035Z,1.53
2023-05-05T08:22:47.538Z,1.97
2023-05-05T08:25:15.170Z,2.67
2023-05-05T08:27:43.041Z,3.57
2023-05-05T08:30:10.771Z,1.40
2023-05-05T08:32:38.598Z,1.80
2023-05-05T08:35:06.562Z,1.30
2023-05-05T08:37:34.291Z,1.70
2023-05-05T08:40:01.575Z,1.73
2023-05-05T08:42:38.112Z,1.10
2023-05-05T08:45:08.143Z,1.77
2023-05-05T08:47:39.010Z,1.20
2023-05-05T08:50:07.096Z,1.77
2023-05-05T08:52:40.338Z,2.10
2023-05-05T08:55:30.835Z,1.30
2023-05-05T08:57:58.480Z,1.20
2023-05-05T09:00:27.266Z,1.20
2023-05-05T09:02:57.277Z,1.53
2023-05-05T09:05:24.960Z,1.47
2023-05-05T09:07:52.505Z,1.73
2023-05-05T09:10:19.948Z,1.17
2023-05-05T09:12:47.431Z,1.73
2023-05-05T09:15:15.357Z,1.50
2023-05-05T09:17:43.441Z,1.23
2023-05-05T09:20:14.899Z,1.80
2023-05-05T09:22:46.801Z,1.10
2023-05-05T09:25:18.230Z,1.30
2023-05-05T09:27:49.282Z,1.30
2023-05-05T09:30:17.700Z,1.40
2023-05-05T09:32:55.079Z,1.73
2023-05-05T09:35:22.838Z,1.73
2023-05-05T09:37:50.207Z,1.27
2023-05-05T09:40:19.300Z,1.10
2023-05-05T09:42:46.758Z,1.50
2023-05-05T09:45:19.874Z,1.83
2023-05-05T09:47:48.143Z,1.87
2023-05-05T09:50:18.802Z,1.30
2023-05-05T09:53:01.147Z,2.13
2023-05-05T09:55:28.461Z,1.20
2023-05-05T09:57:55.725Z,2.27
2023-05-05T10:00:23.152Z,1.20
2023-05-05T10:02:50.503Z,1.33
2023-05-05T10:05:18.680Z,1.47
2023-05-05T10:07:47.670Z,1.30
2023-05-05T10:10:17.190Z,1.97
2023-05-05T10:12:46.586Z,1.50
2023-05-05T10:15:15.789Z,2.00
2023-05-05T10:20:19.973Z,1.60
2023-05-05T10:22:53.506Z,1.37
2023-05-05T10:25:28.833Z,2.07
2023-05-05T10:27:59.356Z,1.70
2023-05-05T10:30:36.643Z,1.60
2023-05-05T10:33:30.357Z,1.70
2023-05-05T10:36:05.304Z,1.40
2023-05-05T10:38:33.480Z,1.23
2023-05-05T10:41:02.201Z,1.30
2023-05-05T10:43:31.429Z,1.40
2023-05-05T10:45:58.898Z,1.67
2023-05-05T10:48:49.439Z,1.20
2023-05-05T10:51:41.155Z,1.67
2023-05-05T10:54:16.823Z,1.27
2023-05-05T10:56:44.120Z,1.10
2023-05-05T10:59:38.951Z,1.20
2023-05-05T11:02:22.203Z,1.47
2023-05-05T11:05:10.262Z,1.30
2023-05-05T11:07:37.947Z,2.13
2023-05-05T11:10:10.041Z,1.10
2023-05-05T11:13:03.233Z,1.20
2023-05-05T11:15:30.583Z,1.03
2023-05-05T11:18:03.135Z,1.67
2023-05-05T11:20:39.786Z,1.20
2023-05-05T11:23:07.383Z,0.90
2023-05-05T11:25:37.615Z,1.20
2023-05-05T11:28:05.638Z,1.50
2023-05-05T11:30:40.051Z,1.20
2023-05-05T11:33:29.085Z,1.57
2023-05-05T11:35:56.352Z,0.90
2023-05-05T11:38:47.452Z,1.70
2023-05-05T11:41:32.339Z,0.90
2023-05-05T11:44:21.062Z,0.93
2023-05-05T11:46:50.897Z,1.37
2023-05-05T11:49:28.322Z,1.00
2023-05-05T11:52:03.955Z,0.93
2023-05-05T11:54:31.489Z,1.37
2023-05-05T11:57:02.065Z,1.30
2023-05-05T11:59:29.260Z,1.17
2023-05-05T12:01:57.588Z,1.07
2023-05-05T12:04:25.123Z,0.90
2023-05-05T12:06:52.544Z,0.97
2023-05-05T12:09:21.129Z,1.10
2023-05-05T12:11:55.497Z,1.10
2023-05-05T12:14:23.703Z,1.30
2023-05-05T12:17:07.706Z,1.00
2023-05-05T12:19:35.171Z,1.10
2023-05-05T12:22:05.386Z,0.97
2023-05-05T12:24:32.577Z,1.00
2023-05-05T12:27:12.123Z,2.17
2023-05-05T12:29:39.433Z,1.30
2023-05-05T12:32:06.738Z,1.10
2023-05-05T12:34:34.108Z,1.07
2023-05-05T12:37:01.604Z,1.03
2023-05-05T12:39:46.481Z,0.90
2023-05-05T12:42:13.644Z,0.90
2023-05-05T12:44:41.448Z,1.17
2023-05-05T12:47:08.640Z,0.80
2023-05-05T12:49:56.132Z,1.13
2023-05-05T12:52:23.428Z,0.80
2023-05-05T12:54:55.371Z,1.00
2023-05-05T12:57:23.195Z,1.60
2023-05-05T12:59:51.714Z,1.00
2023-05-05T13:02:19.300Z,1.00
2023-05-05T13:04:51.450Z,1.83
2023-05-05T13:07:19.899Z,0.70
2023-05-05T13:09:48.124Z,1.00
2023-05-05T13:12:18.597Z,1.37
2023-05-05T13:14:46.767Z,1.07
2023-05-05T13:17:14.750Z,1.27
2023-05-05T13:19:42.770Z,1.43
2023-05-05T13:22:10.480Z,1.20
2023-05-05T13:24:49.693Z,1.17
2023-05-05T13:27:17.637Z,1.20
2023-05-05T13:29:44.852Z,1.33
2023-05-05T13:32:12.095Z,1.00
2023-05-05T13:34:39.534Z,0.93
2023-05-05T13:37:07.134Z,0.80
2023-05-05T13:39:34.359Z,1.17
2023-05-05T13:42:01.503Z,0.90
2023-05-05T13:44:28.736Z,1.10
2023-05-05T13:46:55.977Z,1.30
2023-05-05T13:49:23.735Z,1.23
2023-05-05T13:51:50.999Z,1.50
2023-05-05T13:54:18.221Z,1.10
2023-05-05T13:56:45.421Z,1.30
2023-05-05T13:59:12.825Z,0.97
2023-05-05T14:01:39.990Z,0.90
2023-05-05T14:04:07.335Z,1.27
2023-05-05T14:06:35.660Z,1.27
2023-05-05T14:09:05.857Z,1.23
2023-05-05T14:11:33.359Z,1.10
2023-05-05T14:14:00.723Z,1.53
2023-05-05T14:16:27.976Z,1.00
2023-05-05T14:18:55.252Z,1.00
2023-05-05T14:21:22.441Z,1.23
2023-05-05T14:23:49.870Z,1.13
2023-05-05T14:26:17.256Z,1.47
2023-05-05T14:28:44.646Z,1.23
2023-05-05T14:31:12.115Z,1.30
2023-05-05T14:33:39.360Z,1.17
2023-05-05T14:36:06.552Z,1.20
2023-05-05T14:38:33.964Z,1.10
2023-05-05T14:41:01.427Z,1.17
2023-05-05T14:43:28.627Z,1.20
2023-05-05T14:45:55.957Z,0.83
2023-05-05T14:48:23.126Z,1.50
2023-05-05T14:50:50.466Z,1.20
2023-05-05T14:53:19.140Z,1.10
2023-05-05T14:55:46.388Z,1.00
2023-05-05T14:58:13.568Z,1.10
2023-05-05T15:00:40.796Z,0.97
2023-05-05T15:03:08.122Z,1.20
2023-05-05T15:05:35.564Z,1.13
2023-05-05T15:08:02.763Z,1.23
2023-05-05T15:10:29.944Z,1.10
2023-05-05T15:12:57.231Z,0.90
2023-05-05T15:15:24.494Z,0.93
2023-05-05T15:17:51.832Z,1.27
2023-05-05T15:20:19.085Z,1.23
2023-05-05T15:22:47.841Z,1.10
2023-05-05T15:25:16.300Z,1.30
2023-05-05T15:27:43.492Z,1.13
2023-05-05T15:30:11.840Z,1.10
2023-05-05T15:32:39.071Z,1.00
2023-05-05T15:35:06.837Z,1.03
2023-05-05T15:37:34.402Z,1.20
2023-05-05T15:40:01.692Z,0.90
2023-05-05T15:42:28.917Z,1.50
2023-05-05T15:44:56.079Z,1.30
2023-05-05T15:47:23.408Z,0.83
2023-05-05T15:49:50.698Z,0.90
2023-05-05T15:52:17.987Z,1.10
2023-05-05T15:54:45.394Z,1.33
2023-05-05T15:57:12.603Z,1.00
2023-05-05T15:59:39.950Z,1.00
2023-05-05T16:02:07.179Z,1.07
2023-05-05T16:04:34.410Z,0.93
2023-05-05T16:07:03.269Z,1.07
2023-05-05T16:09:30.522Z,0.90
2023-05-05T16:11:57.786Z,1.53
2023-05-05T16:14:25.158Z,1.27
2023-05-05T16:16:52.347Z,1.23
2023-05-05T16:19:19.597Z,0.90
2023-05-05T16:21:46.822Z,0.90
2023-05-05T16:24:16.528Z,1.30
2023-05-05T16:26:44.196Z,1.00
2023-05-05T16:29:11.656Z,1.13
2023-05-05T16:31:39.182Z,1.00
2023-05-05T16:34:06.992Z,0.77
2023-05-05T16:36:34.236Z,1.00
2023-05-05T16:39:01.518Z,0.90
2023-05-05T16:41:28.766Z,1.00
2023-05-05T16:43:56.297Z,1.83
2023-05-05T16:46:23.568Z,0.97
2023-05-05T16:48:50.937Z,0.80
2023-05-05T16:51:18.133Z,2.10
2023-05-05T16:53:46.620Z,0.90
2023-05-05T16:56:14.824Z,1.27
2023-05-05T16:58:41.961Z,0.90
2023-05-05T17:01:09.204Z,1.63
2023-05-05T17:03:36.391Z,1.00
2023-05-05T17:06:03.596Z,1.03
2023-05-05T17:08:30.779Z,1.00
2023-05-05T17:10:58.043Z,1.33
2023-05-05T17:13:25.276Z,1.13
2023-05-05T17:15:52.517Z,1.23
2023-05-05T17:18:21.850Z,1.07
2023-05-05T17:20:49.496Z,1.30
2023-05-05T17:23:16.791Z,1.43
2023-05-05T17:25:44.006Z,1.67
2023-05-05T17:28:11.213Z,1.10
2023-05-05T17:30:38.360Z,1.73
2023-05-05T17:33:05.751Z,1.20
2023-05-05T17:35:32.983Z,1.40
2023-05-05T17:38:00.160Z,1.40
2023-05-05T17:40:27.349Z,1.70
2023-05-05T17:42:54.604Z,1.10
2023-05-05T17:45:21.796Z,1.00
2023-05-05T17:47:48.986Z,1.23
2023-05-05T17:50:16.216Z,1.20
2023-05-05T17:52:45.094Z,1.10
2023-05-05T17:55:12.675Z,1.00
2023-05-05T17:57:40.057Z,0.93
2023-05-05T18:00:08.990Z,1.37
2023-05-05T18:02:37.125Z,1.37
2023-05-05T18:05:04.858Z,1.30
2023-05-05T18:07:33.654Z,1.07
2023-05-05T18:10:00.885Z,1.40
2023-05-05T18:12:28.050Z,1.30
2023-05-05T18:14:55.265Z,1.40
2023-05-05T18:17:22.427Z,1.40
2023-05-05T18:19:49.686Z,2.23
2023-05-05T18:22:17.492Z,1.33
2023-05-05T18:24:44.874Z,1.07
2023-05-05T18:27:12.301Z,1.10
2023-05-05T18:29:39.544Z,1.20
2023-05-05T18:32:06.936Z,1.17
2023-05-05T18:34:34.230Z,1.30
2023-05-05T18:37:01.538Z,1.30
2023-05-05T18:39:28.730Z,1.27
2023-05-05T18:41:56.003Z,1.30
2023-05-05T18:44:23.161Z,1.97
2023-05-05T18:46:50.351Z,1.30
2023-05-05T18:49:17.682Z,1.60
2023-05-05T18:51:44.894Z,1.30
2023-05-05T18:54:12.221Z,1.30
2023-05-05T18:56:39.442Z,1.33
2023-05-05T18:59:06.602Z,1.40
2023-05-05T19:01:33.961Z,2.30
2023-05-05T19:04:01.292Z,1.07
2023-05-05T19:06:28.516Z,1.23
2023-05-05T19:08:56.812Z,2.17
2023-05-05T19:11:24.226Z,1.43
2023-05-05T19:13:51.415Z,1.50
2023-05-05T19:16:18.821Z,1.43
2023-05-05T19:18:46.071Z,1.30
2023-05-05T19:21:13.236Z,1.33
2023-05-05T19:23:40.976Z,1.20
2023-05-05T19:26:08.152Z,1.50
2023-05-05T19:28:35.354Z,1.47
2023-05-05T19:31:02.521Z,1.37
2023-05-05T19:33:29.729Z,1.40
2023-05-05T19:35:56.967Z,1.80
2023-05-05T19:38:24.230Z,1.60
2023-05-05T19:40:51.437Z,1.37
2023-05-05T19:43:18.650Z,1.93
2023-05-05T19:45:45.834Z,1.83
2023-05-05T19:48:13.047Z,1.50
2023-05-05T19:50:40.417Z,1.53
2023-05-05T19:53:07.595Z,1.53
2023-05-05T19:55:34.776Z,1.33
2023-05-05T19:58:01.942Z,1.30
2023-05-05T20:00:29.134Z,1.30
2023-05-05T20:02:56.380Z,1.33
2023-05-05T20:05:23.622Z,2.40
2023-05-05T20:07:51.205Z,1.73
2023-05-05T20:10:18.204Z,1.30
2023-05-05T20:12:49.146Z,1.60
2023-05-05T20:15:20.054Z,1.87
2023-05-05T20:17:47.974Z,1.47
2023-05-05T20:20:20.935Z,1.60
2023-05-05T20:22:48.839Z,1.43
2023-05-05T20:25:16.451Z,1.40
2023-05-05T20:27:43.748Z,1.30
2023-05-05T20:30:12.307Z,1.43
2023-05-05T20:32:39.635Z,1.50
2023-05-05T20:35:07.368Z,1.60
2023-05-05T20:37:34.643Z,1.77
2023-05-05T20:40:01.844Z,1.60
2023-05-05T20:42:29.730Z,2.77
2023-05-05T20:44:57.183Z,2.07
2023-05-05T20:47:24.815Z,1.50
2023-05-05T20:49:52.527Z,1.70
2023-05-05T20:52:19.982Z,1.63
2023-05-05T20:54:47.165Z,1.50
2023-05-05T20:57:14.377Z,2.20
2023-05-05T20:59:41.539Z,1.57
2023-05-05T21:02:09.077Z,1.60
2023-05-05T21:04:36.622Z,1.97
2023-05-05T21:07:03.890Z,1.70
2023-05-05T21:09:31.549Z,1.60
2023-05-05T21:11:58.884Z,2.53
2023-05-05T21:14:26.089Z,1.30
2023-05-05T21:16:53.300Z,1.40
2023-05-05T21:19:21.294Z,1.53
2023-05-05T21:21:48.684Z,1.90
2023-05-05T21:24:16.407Z,1.43
2023-05-05T21:26:46.949Z,3.50
2023-05-05T21:29:14.158Z,1.40
2023-05-05T21:31:41.389Z,1.67
2023-05-05T21:34:08.592Z,1.63
2023-05-05T21:36:36.819Z,1.73
2023-05-05T21:39:03.658Z,1.40
2023-05-05T21:41:30.967Z,1.60
2023-05-05T21:43:58.594Z,1.50
2023-05-05T21:46:25.914Z,2.27
2023-05-05T21:48:53.198Z,1.70
2023-05-05T21:51:22.585Z,1.83
2023-05-05T21:53:49.775Z,1.43
2023-05-05T21:56:17.093Z,1.60
2023-05-05T21:58:44.605Z,3.03
2023-05-05T22:01:12.261Z,1.70
2023-05-05T22:03:39.566Z,1.40
2023-05-05T22:06:06.898Z,1.77
2023-05-05T22:08:34.057Z,1.60
2023-05-05T22:11:01.975Z,1.50
2023-05-05T22:13:29.136Z,1.37
2023-05-05T22:15:56.356Z,1.47
2023-05-05T22:18:23.492Z,1.77
2023-05-05T22:20:53.092Z,1.80
2023-05-05T22:23:20.404Z,1.83
2023-05-05T22:25:47.891Z,1.90
2023-05-05T22:28:15.048Z,1.77
2023-05-05T22:30:42.281Z,1.40
2023-05-05T22:33:09.560Z,1.50
2023-05-05T22:35:37.433Z,1.40
2023-05-05T22:38:04.622Z,1.60
2023-05-05T22:40:31.768Z,2.90
2023-05-05T22:42:59.430Z,1.33
2023-05-05T22:45:26.612Z,1.70
2023-05-05T22:47:54.087Z,1.33
2023-05-05T22:50:21.290Z,1.70
2023-05-05T22:52:48.503Z,1.87
2023-05-05T22:55:16.059Z,1.90
2023-05-05T22:57:43.419Z,1.93
2023-05-05T23:00:10.814Z,1.47
2023-05-05T23:02:38.629Z,1.30
2023-05-05T23:05:05.966Z,2.23
2023-05-05T23:07:33.144Z,1.40
2023-05-05T23:10:00.458Z,1.60
2023-05-05T23:12:27.694Z,1.47
2023-05-05T23:14:54.915Z,1.77
2023-05-05T23:17:22.116Z,1.73
2023-05-05T23:19:49.527Z,1.63
2023-05-05T23:22:16.797Z,1.50
2023-05-05T23:24:44.108Z,1.60
2023-05-05T23:27:11.453Z,1.77
2023-05-05T23:29:38.672Z,2.27
2023-05-05T23:32:06.377Z,1.50
2023-05-05T23:34:33.607Z,2.00
2023-05-05T23:37:00.801Z,1.80
2023-05-05T23:39:28.047Z,1.70
2023-05-05T23:41:55.204Z,1.43
2023-05-05T23:44:22.395Z,1.90
2023-05-05T23:46:49.530Z,1.50
2023-05-05T23:49:16.795Z,1.77
2023-05-05T23:51:43.935Z,1.70
2023-05-05T23:54:11.179Z,1.50
2023-05-05T23:56:38.396Z,1.63
2023-05-05T23:59:06.275Z,1.50
